sensor_id;sensor_type;location;lat;lon;timestamp;temperature;humidity
9403;DHT22;4741;49.834;10.740;2023-07-29T00:01:37;18.10;99.90
9403;DHT22;4741;49.834;10.740;2023-07-29T00:04:07;17.60;99.90
9403;DHT22;4741;49.834;10.740;2023-07-29T00:06:35;17.70;99.90
9403;DHT22;4741;49.834;10.740;2023-07-29T00:09:02;17.80;99.90
9403;DHT22;4741;49.834;10.740;2023-07-29T00:11:29;17.80;99.90
9403;DHT22;4741;49.834;10.740;2023-07-29T00:13:56;17.70;99.90
9403;DHT22;4741;49.834;10.740;2023-07-29T00:16:23;17.70;99.90
9403;DHT22;4741;49.834;10.740;2023-07-29T00:18:50;17.70;99.90
9403;DHT22;4741;49.834;10.740;2023-07-29T00:21:16;17.60;99.90
9403;DHT22;4741;49.834;10.740;2023-07-29T00:23:43;17.60;99.90
9403;DHT22;4741;49.834;10.740;2023-07-29T00:26:10;17.50;99.90
9403;DHT22;4741;49.834;10.740;2023-07-29T00:28:36;17.50;99.90
9403;DHT22;4741;49.834;10.740;2023-07-29T00:31:03;17.40;99.90
9403;DHT22;4741;49.834;10.740;2023-07-29T00:33:30;17.40;99.90
9403;DHT22;4741;49.834;10.740;2023-07-29T00:35:57;17.40;99.90
9403;DHT22;4741;49.834;10.740;2023-07-29T00:38:23;17.40;99.90
9403;DHT22;4741;49.834;10.740;2023-07-29T00:40:50;18.30;99.90
9403;DHT22;4741;49.834;10.740;2023-07-29T00:43:17;17.30;99.90
9403;DHT22;4741;49.834;10.740;2023-07-29T00:45:43;17.30;99.90
9403;DHT22;4741;49.834;10.740;2023-07-29T00:48:10;17.30;99.90
9403;DHT22;4741;49.834;10.740;2023-07-29T00:50:38;17.30;99.90
9403;DHT22;4741;49.834;10.740;2023-07-29T00:53:04;17.30;99.90
9403;DHT22;4741;49.834;10.740;2023-07-29T00:55:31;17.30;99.90
9403;DHT22;4741;49.834;10.740;2023-07-29T00:57:58;17.20;99.90
9403;DHT22;4741;49.834;10.740;2023-07-29T01:00:25;17.20;99.90
9403;DHT22;4741;49.834;10.740;2023-07-29T01:02:52;17.20;99.90
9403;DHT22;4741;49.834;10.740;2023-07-29T01:05:21;17.10;99.90
9403;DHT22;4741;49.834;10.740;2023-07-29T01:10:35;17.20;99.90
9403;DHT22;4741;49.834;10.740;2023-07-29T01:13:10;17.20;99.90
9403;DHT22;4741;49.834;10.740;2023-07-29T01:18:05;17.10;99.90
9403;DHT22;4741;49.834;10.740;2023-07-29T01:20:34;17.10;99.90
9403;DHT22;4741;49.834;10.740;2023-07-29T01:23:03;17.20;99.90
9403;DHT22;4741;49.834;10.740;2023-07-29T01:25:29;17.20;99.90
9403;DHT22;4741;49.834;10.740;2023-07-29T01:27:56;17.20;99.90
9403;DHT22;4741;49.834;10.740;2023-07-29T01:30:28;17.20;99.90
9403;DHT22;4741;49.834;10.740;2023-07-29T01:33:03;17.20;99.90
9403;DHT22;4741;49.834;10.740;2023-07-29T01:38:09;17.20;99.90
9403;DHT22;4741;49.834;10.740;2023-07-29T01:40:38;17.20;99.90
9403;DHT22;4741;49.834;10.740;2023-07-29T01:43:06;17.20;99.90
9403;DHT22;4741;49.834;10.740;2023-07-29T01:45:34;17.20;99.90
9403;DHT22;4741;49.834;10.740;2023-07-29T01:48:05;17.20;99.90
9403;DHT22;4741;49.834;10.740;2023-07-29T01:50:31;17.20;99.90
9403;DHT22;4741;49.834;10.740;2023-07-29T01:52:58;17.20;99.90
9403;DHT22;4741;49.834;10.740;2023-07-29T01:55:25;17.30;99.90
9403;DHT22;4741;49.834;10.740;2023-07-29T01:57:52;17.40;99.90
9403;DHT22;4741;49.834;10.740;2023-07-29T02:00:19;16.60;99.90
9403;DHT22;4741;49.834;10.740;2023-07-29T02:02:46;17.30;99.90
9403;DHT22;4741;49.834;10.740;2023-07-29T02:05:12;17.30;99.90
9403;DHT22;4741;49.834;10.740;2023-07-29T02:07:39;17.30;99.90
9403;DHT22;4741;49.834;10.740;2023-07-29T02:10:06;17.20;99.90
9403;DHT22;4741;49.834;10.740;2023-07-29T02:12:33;17.20;99.90
9403;DHT22;4741;49.834;10.740;2023-07-29T02:14:59;17.10;99.90
9403;DHT22;4741;49.834;10.740;2023-07-29T02:17:26;17.00;99.90
9403;DHT22;4741;49.834;10.740;2023-07-29T02:19:53;17.00;99.90
9403;DHT22;4741;49.834;10.740;2023-07-29T02:22:19;17.00;99.90
9403;DHT22;4741;49.834;10.740;2023-07-29T02:24:46;17.00;99.90
9403;DHT22;4741;49.834;10.740;2023-07-29T02:27:12;17.00;99.90
9403;DHT22;4741;49.834;10.740;2023-07-29T02:29:39;16.90;99.90
9403;DHT22;4741;49.834;10.740;2023-07-29T02:32:06;16.80;99.90
9403;DHT22;4741;49.834;10.740;2023-07-29T02:34:32;16.80;99.90
9403;DHT22;4741;49.834;10.740;2023-07-29T02:36:59;16.80;99.90
9403;DHT22;4741;49.834;10.740;2023-07-29T02:39:26;16.70;99.90
9403;DHT22;4741;49.834;10.740;2023-07-29T02:41:52;16.70;99.90
9403;DHT22;4741;49.834;10.740;2023-07-29T02:44:19;16.60;99.90
9403;DHT22;4741;49.834;10.740;2023-07-29T02:46:46;16.60;99.90
9403;DHT22;4741;49.834;10.740;2023-07-29T02:49:13;16.60;99.90
9403;DHT22;4741;49.834;10.740;2023-07-29T02:51:40;16.60;99.90
9403;DHT22;4741;49.834;10.740;2023-07-29T02:54:06;16.60;99.90
9403;DHT22;4741;49.834;10.740;2023-07-29T02:56:33;16.50;99.90
9403;DHT22;4741;49.834;10.740;2023-07-29T02:59:00;16.50;99.90
9403;DHT22;4741;49.834;10.740;2023-07-29T09:02:09;19.90;99.90
9403;DHT22;4741;49.834;10.740;2023-07-29T09:04:36;20.20;99.90
9403;DHT22;4741;49.834;10.740;2023-07-29T09:07:03;21.40;99.90
9403;DHT22;4741;49.834;10.740;2023-07-29T09:09:31;20.10;99.90
9403;DHT22;4741;49.834;10.740;2023-07-29T09:11:58;20.40;99.90
9403;DHT22;4741;49.834;10.740;2023-07-29T09:14:24;20.20;99.90
9403;DHT22;4741;49.834;10.740;2023-07-29T09:16:51;20.30;99.90
9403;DHT22;4741;49.834;10.740;2023-07-29T09:19:18;21.20;99.90
9403;DHT22;4741;49.834;10.740;2023-07-29T09:21:46;21.00;99.90
9403;DHT22;4741;49.834;10.740;2023-07-29T09:24:15;20.50;99.90
9403;DHT22;4741;49.834;10.740;2023-07-29T09:26:48;20.50;99.90
9403;DHT22;4741;49.834;10.740;2023-07-29T09:29:14;20.60;99.90
9403;DHT22;4741;49.834;10.740;2023-07-29T09:31:41;20.70;99.90
9403;DHT22;4741;49.834;10.740;2023-07-29T09:34:08;20.50;99.90
9403;DHT22;4741;49.834;10.740;2023-07-29T09:36:35;19.50;99.90
9403;DHT22;4741;49.834;10.740;2023-07-29T09:39:02;20.50;99.90
9403;DHT22;4741;49.834;10.740;2023-07-29T09:41:30;20.00;99.90
9403;DHT22;4741;49.834;10.740;2023-07-29T09:44:01;20.70;99.90
9403;DHT22;4741;49.834;10.740;2023-07-29T09:46:33;20.40;99.90
9403;DHT22;4741;49.834;10.740;2023-07-29T09:49:04;20.60;99.90
9403;DHT22;4741;49.834;10.740;2023-07-29T09:51:31;20.80;99.90
9403;DHT22;4741;49.834;10.740;2023-07-29T09:54:03;21.60;99.90
9403;DHT22;4741;49.834;10.740;2023-07-29T09:56:30;21.50;99.90
9403;DHT22;4741;49.834;10.740;2023-07-29T09:58:57;22.50;99.90
9403;DHT22;4741;49.834;10.740;2023-07-29T13:05:39;29.10;99.90
9403;DHT22;4741;49.834;10.740;2023-07-29T15:52:30;28.90;99.90
9403;DHT22;4741;49.834;10.740;2023-07-29T15:54:57;28.50;99.90
9403;DHT22;4741;49.834;10.740;2023-07-29T15:57:24;26.50;99.90
9403;DHT22;4741;49.834;10.740;2023-07-29T15:59:50;26.90;99.90
9403;DHT22;4741;49.834;10.740;2023-07-29T16:02:17;25.70;99.90
9403;DHT22;4741;49.834;10.740;2023-07-29T16:04:44;25.30;99.90
9403;DHT22;4741;49.834;10.740;2023-07-29T16:07:10;27.30;99.90
9403;DHT22;4741;49.834;10.740;2023-07-29T16:09:37;27.00;99.90
9403;DHT22;4741;49.834;10.740;2023-07-29T16:12:04;26.60;99.90
9403;DHT22;4741;49.834;10.740;2023-07-29T16:14:30;27.60;99.90
9403;DHT22;4741;49.834;10.740;2023-07-29T16:16:57;26.60;99.90
9403;DHT22;4741;49.834;10.740;2023-07-29T16:19:24;25.50;99.90
9403;DHT22;4741;49.834;10.740;2023-07-29T16:21:52;25.50;99.90
9403;DHT22;4741;49.834;10.740;2023-07-29T16:24:18;27.50;99.90
9403;DHT22;4741;49.834;10.740;2023-07-29T16:26:45;28.00;99.90
9403;DHT22;4741;49.834;10.740;2023-07-29T16:29:12;28.80;99.90
9403;DHT22;4741;49.834;10.740;2023-07-29T16:31:39;28.70;99.90
9403;DHT22;4741;49.834;10.740;2023-07-29T16:34:06;28.80;99.90
9403;DHT22;4741;49.834;10.740;2023-07-29T16:36:33;28.00;99.90
9403;DHT22;4741;49.834;10.740;2023-07-29T16:39:01;27.20;99.90
9403;DHT22;4741;49.834;10.740;2023-07-29T16:41:27;27.20;99.90
9403;DHT22;4741;49.834;10.740;2023-07-29T16:44:14;28.30;99.90
9403;DHT22;4741;49.834;10.740;2023-07-29T16:46:41;28.00;99.90
9403;DHT22;4741;49.834;10.740;2023-07-29T16:49:07;27.80;99.90
9403;DHT22;4741;49.834;10.740;2023-07-29T16:51:47;26.50;99.90
9403;DHT22;4741;49.834;10.740;2023-07-29T16:54:14;26.10;99.90
9403;DHT22;4741;49.834;10.740;2023-07-29T16:56:44;26.10;99.90
9403;DHT22;4741;49.834;10.740;2023-07-29T16:59:11;25.80;99.90
9403;DHT22;4741;49.834;10.740;2023-07-29T17:01:38;25.60;99.90
9403;DHT22;4741;49.834;10.740;2023-07-29T17:04:05;25.80;99.90
9403;DHT22;4741;49.834;10.740;2023-07-29T17:06:31;25.90;99.90
9403;DHT22;4741;49.834;10.740;2023-07-29T17:08:58;25.00;99.90
9403;DHT22;4741;49.834;10.740;2023-07-29T17:11:25;25.40;99.90
9403;DHT22;4741;49.834;10.740;2023-07-29T17:13:52;24.90;99.90
9403;DHT22;4741;49.834;10.740;2023-07-29T17:16:18;24.80;99.90
9403;DHT22;4741;49.834;10.740;2023-07-29T17:18:45;25.40;99.90
9403;DHT22;4741;49.834;10.740;2023-07-29T17:21:12;24.80;99.90
9403;DHT22;4741;49.834;10.740;2023-07-29T17:23:39;24.50;99.90
9403;DHT22;4741;49.834;10.740;2023-07-29T17:26:06;24.30;99.90
9403;DHT22;4741;49.834;10.740;2023-07-29T17:28:34;24.10;99.90
9403;DHT22;4741;49.834;10.740;2023-07-29T17:31:01;24.10;99.90
9403;DHT22;4741;49.834;10.740;2023-07-29T17:33:29;24.20;99.90
9403;DHT22;4741;49.834;10.740;2023-07-29T17:35:55;24.30;99.90
9403;DHT22;4741;49.834;10.740;2023-07-29T17:38:22;23.80;99.90
9403;DHT22;4741;49.834;10.740;2023-07-29T17:40:49;23.80;99.90
9403;DHT22;4741;49.834;10.740;2023-07-29T17:43:16;24.30;99.90
9403;DHT22;4741;49.834;10.740;2023-07-29T17:45:42;23.90;99.90
9403;DHT22;4741;49.834;10.740;2023-07-29T17:48:09;23.50;99.90
9403;DHT22;4741;49.834;10.740;2023-07-29T17:50:36;23.60;99.90
9403;DHT22;4741;49.834;10.740;2023-07-29T17:53:03;24.10;99.90
9403;DHT22;4741;49.834;10.740;2023-07-29T17:55:30;23.70;99.90
9403;DHT22;4741;49.834;10.740;2023-07-29T17:57:56;23.50;99.90
9403;DHT22;4741;49.834;10.740;2023-07-29T18:00:24;23.50;99.90
9403;DHT22;4741;49.834;10.740;2023-07-29T18:02:51;24.10;99.90
9403;DHT22;4741;49.834;10.740;2023-07-29T18:05:19;23.80;99.90
9403;DHT22;4741;49.834;10.740;2023-07-29T18:07:46;23.30;99.90
9403;DHT22;4741;49.834;10.740;2023-07-29T18:10:13;23.30;99.90
9403;DHT22;4741;49.834;10.740;2023-07-29T18:12:40;23.10;99.90
9403;DHT22;4741;49.834;10.740;2023-07-29T18:15:09;23.20;99.90
9403;DHT22;4741;49.834;10.740;2023-07-29T18:17:36;23.10;99.90
9403;DHT22;4741;49.834;10.740;2023-07-29T18:20:03;22.60;99.90
9403;DHT22;4741;49.834;10.740;2023-07-29T18:22:30;22.90;99.90
9403;DHT22;4741;49.834;10.740;2023-07-29T18:24:56;22.90;99.90
9403;DHT22;4741;49.834;10.740;2023-07-29T18:27:23;22.70;99.90
9403;DHT22;4741;49.834;10.740;2023-07-29T18:29:50;23.00;99.90
9403;DHT22;4741;49.834;10.740;2023-07-29T18:32:17;22.60;99.90
9403;DHT22;4741;49.834;10.740;2023-07-29T18:34:43;22.30;99.90
9403;DHT22;4741;49.834;10.740;2023-07-29T18:37:10;22.60;99.90
9403;DHT22;4741;49.834;10.740;2023-07-29T18:39:37;22.60;99.90
9403;DHT22;4741;49.834;10.740;2023-07-29T18:42:04;22.50;99.90
9403;DHT22;4741;49.834;10.740;2023-07-29T18:44:30;22.50;99.90
9403;DHT22;4741;49.834;10.740;2023-07-29T18:46:57;22.30;99.90
9403;DHT22;4741;49.834;10.740;2023-07-29T18:49:24;22.30;99.90
9403;DHT22;4741;49.834;10.740;2023-07-29T18:51:51;22.20;99.90
